Bookmark and Share
Track history (hours):
 

Shirahamamaru

Last reported at 2014-Apr-23 09:33 UTC. Time now 2014-Apr-23 09:49 UTC.
Position N 35°11' E 139°48'.

Length 79 m; draft 3.2 m.

Type: Passenger vessel. MMSI: 431000239.

NotesDate/timePositionNaut miles runAvg speedWind from/ knotsBaromVisibWave heightAir tempDewpointWater temp
2014-Apr-23 09:33N 35°11' E 139°48'4 4.3
2014-Apr-23 08:33N 35°13' E 139°43'5 5.3
2014-Apr-23 07:33N 35°10' E 139°49'5 5.2
2014-Apr-23 06:33N 35°13' E 139°44'3 3.3
2014-Apr-23 05:33N 35°11' E 139°47'2 2.5
2014-Apr-23 04:33N 35°13' E 139°45'3 3.3
2014-Apr-23 03:34N 35°11' E 139°48'4 4.3
2014-Apr-23 02:33N 35°13' E 139°43'4 4.4
2014-Apr-23 01:33N 35°11' E 139°48'4 4.2
2014-Apr-23 00:33N 35°13' E 139°44'2 2.3
2014-Apr-22 23:33N 35°12' E 139°46'1 1.3
2014-Apr-22 22:33N 35°13' E 139°45'2 2.2
2014-Apr-22 21:33N 35°12' E 139°47'1 0.1
2014-Apr-22 10:33N 35°12' E 139°46'2 2.0
2014-Apr-22 09:33N 35°11' E 139°48'4 4.2
2014-Apr-22 08:33N 35°13' E 139°44'5 5.2
2014-Apr-22 07:33N 35°10' E 139°49'5 5.2
2014-Apr-22 06:33N 35°13' E 139°44'3 3.3
2014-Apr-22 05:33N 35°12' E 139°47'2 2.3
2014-Apr-22 04:33N 35°13' E 139°45'3 3.2
2014-Apr-22 03:33N 35°11' E 139°48'4 4.3
2014-Apr-22 02:33N 35°13' E 139°44'4 4.3
2014-Apr-22 01:33N 35°11' E 139°48'4 4.2
2014-Apr-22 00:33N 35°13' E 139°44'2 2.2
2014-Apr-21 23:33N 35°12' E 139°46'1 1.2
2014-Apr-21 22:33N 35°13' E 139°45'2 2.3
2014-Apr-21 21:33N 35°11' E 139°47'2 0.2
2014-Apr-21 11:07N 35°10' E 139°49'3 5.9
2014-Apr-21 10:33N 35°12' E 139°46'2 2.2
2014-Apr-21 09:33N 35°11' E 139°48'4 4.2
2014-Apr-21 08:33N 35°13' E 139°44'5 5.2
2014-Apr-21 07:33N 35°10' E 139°49'5 5.1
2014-Apr-21 06:33N 35°13' E 139°44'3 3.1
2014-Apr-21 05:33N 35°12' E 139°47'3 2.6
2014-Apr-21 04:33N 35°13' E 139°44'4 3.7
2014-Apr-21 03:33N 35°11' E 139°48'4 4.5
2014-Apr-21 02:33N 35°13' E 139°43'4 4.5
2014-Apr-21 01:33N 35°11' E 139°48'4 4.3
2014-Apr-21 00:34N 35°13' E 139°43'2 2.4
2014-Apr-20 23:33N 35°12' E 139°46'2 1.6
2014-Apr-20 22:33N 35°13' E 139°45'3 2.6
2014-Apr-20 21:33N 35°11' E 139°47'1 0.1
2014-Apr-20 10:33N 35°12' E 139°46'2 2.3
2014-Apr-20 09:33N 35°11' E 139°48'4 4.5
2014-Apr-20 08:33N 35°13' E 139°43'5 5.4
2014-Apr-20 07:33N 35°10' E 139°49'5 5.4
2014-Apr-20 06:33N 35°13' E 139°43'3 3.4
2014-Apr-20 05:33N 35°11' E 139°47'3 2.5
2014-Apr-20 04:33N 35°13' E 139°44'4 3.6
2014-Apr-20 03:33N 35°11' E 139°48'5 4.7
2014-Apr-20 02:33N 35°13' E 139°43'5 4.6
2014-Apr-20 01:34N 35°11' E 139°48'4 4.4
2014-Apr-20 00:33N 35°13' E 139°43'2 2.4
2014-Apr-19 23:33N 35°12' E 139°46'1 1.3
2014-Apr-19 22:33N 35°13' E 139°45'2 2.3
2014-Apr-19 21:33N 35°11' E 139°47'2 2.1
2014-Apr-19 20:33N 35°10' E 139°49'3 0.3
2014-Apr-19 10:33N 35°12' E 139°45'2 2.3
2014-Apr-19 09:33N 35°11' E 139°48'4 4.2
2014-Apr-19 08:33N 35°13' E 139°43'5 5.2
2014-Apr-19 07:33N 35°10' E 139°49'6 5.4
2014-Apr-19 06:32N 35°13' E 139°43'4 3.7
2014-Apr-19 05:33N 35°11' E 139°47'2 2.5
2014-Apr-19 04:33N 35°13' E 139°44'3 3.5
2014-Apr-19 03:33N 35°11' E 139°48'4 4.4
2014-Apr-19 02:33N 35°13' E 139°43'5 4.5
2014-Apr-19 01:33N 35°11' E 139°48'4 4.2
2014-Apr-19 00:33N 35°13' E 139°44'2 2.3
2014-Apr-18 23:33N 35°12' E 139°46'1 1.3
2014-Apr-18 22:33N 35°13' E 139°45'2 2.3
2014-Apr-18 21:33N 35°11' E 139°47'2 0.2
2014-Apr-18 10:33N 35°12' E 139°45'3 2.8
2014-Apr-18 09:33N 35°11' E 139°48'4 4.4
2014-Apr-18 08:33N 35°13' E 139°43'5 5.2
2014-Apr-18 07:34N 35°10' E 139°49'5 5.1
2014-Apr-18 06:33N 35°13' E 139°43'3 3.3
2014-Apr-18 05:33N 35°12' E 139°47'2 2.3
2014-Apr-18 04:33N 35°13' E 139°45'3 3.4
2014-Apr-18 03:33N 35°11' E 139°48'4 4.2
2014-Apr-18 02:33N 35°13' E 139°44'4 4.2
2014-Apr-18 01:33N 35°11' E 139°48'4 4.1
2014-Apr-18 00:33N 35°13' E 139°44'2 2.4
2014-Apr-17 23:33N 35°12' E 139°46'1 1.4
2014-Apr-17 22:33N 35°13' E 139°45'2 2.3
2014-Apr-17 21:33N 35°11' E 139°47'1 0.1
2014-Apr-17 10:34N 35°12' E 139°46'2 2.2
2014-Apr-17 09:34N 35°11' E 139°48'4 4.2
2014-Apr-17 08:33N 35°13' E 139°44'5 5.1
2014-Apr-17 07:33N 35°10' E 139°49'5 4.9
2014-Apr-17 06:33N 35°13' E 139°44'3 3.1
2014-Apr-17 05:34N 35°12' E 139°47'2 2.1
2014-Apr-17 04:33N 35°13' E 139°45'3 3.1
2014-Apr-17 03:33N 35°11' E 139°48'4 4.4
2014-Apr-17 02:33N 35°13' E 139°43'4 4.5
2014-Apr-17 01:33N 35°11' E 139°48'4 4.4
2014-Apr-17 00:33N 35°13' E 139°43'3 2.5
2014-Apr-16 23:34N 35°12' E 139°46'2 1.6
2014-Apr-16 22:33N 35°13' E 139°44'2 2.4
2014-Apr-16 21:33N 35°11' E 139°47'2 2.1
2014-Apr-16 20:33N 35°10' E 139°49'4 0.4
2014-Apr-16 10:33N 35°12' E 139°45'2 2.4
2014-Apr-16 09:33N 35°11' E 139°48'4 4.3
2014-Apr-16 08:34N 35°13' E 139°43'5 5.2
2014-Apr-16 07:33N 35°10' E 139°49'5 5.2
2014-Apr-16 06:33N 35°13' E 139°43'3 3.4
2014-Apr-16 05:33N 35°12' E 139°47'2 2.4
2014-Apr-16 04:33N 35°13' E 139°44'3 3.5
2014-Apr-16 03:33N 35°11' E 139°48'4 4.5
2014-Apr-16 02:33N 35°13' E 139°43'4 4.5
2014-Apr-16 01:33N 35°11' E 139°48'4 4.2
2014-Apr-16 00:33N 35°13' E 139°44'2 2.3
2014-Apr-15 23:33N 35°12' E 139°46'1 1.2
2014-Apr-15 22:34N 35°13' E 139°45'2 2.1
2014-Apr-15 21:33N 35°12' E 139°47'2 2.1
2014-Apr-15 20:33N 35°10' E 139°49'3 0.3
2014-Apr-15 10:34N 35°12' E 139°46'3 3.1
2014-Apr-15 09:34N 35°10' E 139°49'3 3.1
2014-Apr-15 08:34N 35°13' E 139°46'1 1.4
2014-Apr-15 07:34N 35°11' E 139°47'2 2.4
2014-Apr-15 06:34N 35°13' E 139°45'2 2.4
2014-Apr-15 05:34N 35°11' E 139°47'1 0.6
2014-Apr-15 03:34N 35°12' E 139°46'0 0.3
2014-Apr-15 02:34N 35°12' E 139°46'1 1.5
2014-Apr-15 01:34N 35°11' E 139°47'2 2.4
2014-Apr-15 00:34N 35°13' E 139°45'2 2.3
2014-Apr-14 23:34N 35°11' E 139°47'2 2.5
2014-Apr-14 22:34N 35°13' E 139°45'2 1.6
2014-Apr-14 21:34N 35°12' E 139°46'1 1.4
2014-Apr-14 20:34N 35°13' E 139°45'4 0.4
2014-Apr-14 09:33N 35°10' E 139°49'3 2.8
2014-Apr-14 08:33N 35°12' E 139°46'1 0.9
2014-Apr-14 07:33N 35°12' E 139°47'2 1.9
2014-Apr-14 06:33N 35°13' E 139°45'2 2.0
2014-Apr-14 05:33N 35°12' E 139°47'1 0.1
2014-Apr-13 22:33N 35°12' E 139°46'1 1.4
2014-Apr-13 21:33N 35°13' E 139°45'2 0.2
2014-Apr-13 11:08N 35°13' E 139°43'6 9.7
2014-Apr-13 10:33N 35°10' E 139°49'3 3.0
2014-Apr-13 09:33N 35°12' E 139°46'  

Dump ship's entire track history

sailing weather and tide predictions

Shirahamamaru — JG4872 — position and weather